createdAt,value
2022-08-31T00:01:44.257Z,7.00
2022-08-31T00:04:13.400Z,5.70
2022-08-31T00:06:41.349Z,5.15
2022-08-31T00:09:11.693Z,7.05
2022-08-31T00:11:40.033Z,5.88
2022-08-31T00:14:12.486Z,5.03
2022-08-31T00:16:43.050Z,5.43
2022-08-31T00:19:11.681Z,5.25
2022-08-31T00:21:39.622Z,6.20
2022-08-31T00:24:07.334Z,6.25
2022-08-31T00:26:35.352Z,5.45
2022-08-31T00:29:05.050Z,5.93
2022-08-31T00:31:32.792Z,6.45
2022-08-31T00:34:00.388Z,6.20
2022-08-31T00:36:31.290Z,5.25
2022-08-31T00:38:58.995Z,5.63
2022-08-31T00:41:31.424Z,5.22
2022-08-31T00:44:02.588Z,5.15
2022-08-31T00:46:34.255Z,5.13
2022-08-31T00:49:04.705Z,4.70
2022-08-31T00:51:50.602Z,5.38
2022-08-31T00:54:29.787Z,4.80
2022-08-31T00:56:57.937Z,4.90
2022-08-31T00:59:27.250Z,4.97
2022-08-31T01:01:55.085Z,5.93
2022-08-31T01:04:22.926Z,5.40
2022-08-31T01:06:52.092Z,4.75
2022-08-31T01:09:25.185Z,7.20
2022-08-31T01:11:56.122Z,5.35
2022-08-31T01:14:23.899Z,5.50
2022-08-31T01:16:55.891Z,4.97
2022-08-31T01:19:44.897Z,5.38
2022-08-31T01:22:24.486Z,5.72
2022-08-31T01:24:53.054Z,5.50
2022-08-31T01:27:25.162Z,5.47
2022-08-31T01:29:53.875Z,5.65
2022-08-31T01:32:21.381Z,6.00
2022-08-31T01:34:49.421Z,7.82
2022-08-31T01:37:17.084Z,6.70
2022-08-31T01:39:44.689Z,6.38
2022-08-31T01:42:15.386Z,5.80
2022-08-31T01:44:43.225Z,5.78
2022-08-31T01:47:11.106Z,5.85
2022-08-31T01:49:39.551Z,6.85
2022-08-31T01:52:07.443Z,8.45
2022-08-31T01:54:35.077Z,8.00
2022-08-31T01:57:02.794Z,7.25
2022-08-31T01:59:50.339Z,7.03
2022-08-31T02:02:42.069Z,6.68
2022-08-31T02:05:12.239Z,6.30
2022-08-31T02:07:43.005Z,5.82
2022-08-31T02:10:10.549Z,5.35
2022-08-31T02:12:38.850Z,7.10
2022-08-31T02:15:09.346Z,9.10
2022-08-31T02:17:37.070Z,10.25
2022-08-31T02:20:09.454Z,7.05
2022-08-31T02:22:36.973Z,6.10
2022-08-31T02:25:05.783Z,6.32
2022-08-31T02:27:37.079Z,6.00
2022-08-31T02:30:10.835Z,5.88
2022-08-31T02:32:38.395Z,5.25
2022-08-31T02:35:06.658Z,5.65
2022-08-31T02:37:34.274Z,4.68
2022-08-31T02:40:07.500Z,4.43
2022-08-31T02:42:53.489Z,5.00
2022-08-31T02:45:25.537Z,4.80
2022-08-31T02:47:57.878Z,5.75
2022-08-31T02:50:33.409Z,5.35
2022-08-31T02:53:01.072Z,5.93
2022-08-31T02:55:30.141Z,4.75
2022-08-31T02:57:57.751Z,5.30
2022-08-31T03:00:25.912Z,5.70
2022-08-31T03:02:54.970Z,5.47
2022-08-31T03:05:23.667Z,4.68
2022-08-31T03:07:54.715Z,5.30
2022-08-31T03:10:24.398Z,5.00
2022-08-31T03:12:53.281Z,4.55
2022-08-31T03:15:23.401Z,4.22
2022-08-31T03:17:52.283Z,4.57
2022-08-31T03:20:23.315Z,4.32
2022-08-31T03:22:51.011Z,4.80
2022-08-31T03:25:20.545Z,4.15
2022-08-31T03:27:48.166Z,4.35
2022-08-31T03:30:21.721Z,3.97
2022-08-31T03:33:02.666Z,4.28
2022-08-31T03:35:32.276Z,4.28
2022-08-31T03:38:02.284Z,4.43
2022-08-31T03:40:30.690Z,4.45
2022-08-31T03:42:58.984Z,4.68
2022-08-31T03:45:28.232Z,4.20
2022-08-31T03:47:55.884Z,4.50
2022-08-31T03:50:26.127Z,5.22
2022-08-31T03:53:07.537Z,4.82
2022-08-31T03:55:38.645Z,4.80
2022-08-31T03:58:09.152Z,4.45
2022-08-31T04:00:37.017Z,4.80
2022-08-31T04:03:14.185Z,5.32
2022-08-31T04:06:00.227Z,4.80
2022-08-31T04:08:49.481Z,4.10
2022-08-31T04:11:49.430Z,4.85
2022-08-31T04:14:37.703Z,4.55
2022-08-31T04:17:25.631Z,4.72
2022-08-31T04:20:00.970Z,4.40
2022-08-31T04:22:41.495Z,4.28
2022-08-31T04:25:30.022Z,4.35
2022-08-31T04:27:58.085Z,4.20
2022-08-31T04:30:27.208Z,4.25
2022-08-31T04:32:54.971Z,4.97
2022-08-31T04:35:23.018Z,4.90
2022-08-31T04:37:52.737Z,4.28
2022-08-31T04:40:25.597Z,4.13
2022-08-31T04:42:54.936Z,4.00
2022-08-31T04:45:24.804Z,4.78
2022-08-31T04:47:53.293Z,4.20
2022-08-31T04:50:22.683Z,3.55
2022-08-31T04:53:11.463Z,4.03
2022-08-31T04:55:43.049Z,3.33
2022-08-31T04:58:13.200Z,3.38
2022-08-31T05:00:45.477Z,3.58
2022-08-31T05:03:33.931Z,3.55
2022-08-31T05:06:01.586Z,3.60
2022-08-31T05:08:30.472Z,3.58
2022-08-31T05:10:59.802Z,4.13
2022-08-31T05:13:27.360Z,3.78
2022-08-31T05:15:55.663Z,3.70
2022-08-31T05:18:25.771Z,4.50
2022-08-31T05:20:57.078Z,3.50
2022-08-31T05:23:24.561Z,4.35
2022-08-31T05:25:52.304Z,3.80
2022-08-31T05:28:23.606Z,4.03
2022-08-31T05:30:51.496Z,4.53
2022-08-31T05:33:31.297Z,4.20
2022-08-31T05:36:02.196Z,4.03
2022-08-31T05:38:30.265Z,4.65
2022-08-31T05:41:01.223Z,3.38
2022-08-31T05:43:31.864Z,3.53
2022-08-31T05:46:00.264Z,4.50
2022-08-31T05:48:33.622Z,3.42
2022-08-31T05:51:08.357Z,3.75
2022-08-31T05:58:39.832Z,3.65
2022-08-31T06:01:18.159Z,3.95
2022-08-31T06:04:03.303Z,4.70
2022-08-31T06:06:31.108Z,3.92
2022-08-31T06:08:58.906Z,4.05
2022-08-31T06:11:30.366Z,3.45
2022-08-31T06:14:00.291Z,3.70
2022-08-31T06:16:30.378Z,3.55
2022-08-31T06:19:01.030Z,3.38
2022-08-31T06:21:33.996Z,3.80
2022-08-31T06:24:04.151Z,3.72
2022-08-31T06:26:34.161Z,3.83
2022-08-31T06:29:07.560Z,4.05
2022-08-31T06:31:46.718Z,3.30
2022-08-31T06:34:23.084Z,3.50
2022-08-31T06:37:19.107Z,3.60
2022-08-31T06:40:16.349Z,3.03
2022-08-31T06:42:59.728Z,3.15
2022-08-31T06:45:48.915Z,2.97
2022-08-31T06:48:36.209Z,3.10
2022-08-31T06:51:05.370Z,2.60
2022-08-31T06:53:36.269Z,3.05
2022-08-31T06:56:20.322Z,2.72
2022-08-31T06:59:07.884Z,3.17
2022-08-31T07:02:04.282Z,3.35
2022-08-31T07:04:38.733Z,3.13
2022-08-31T07:07:09.170Z,4.10
2022-08-31T07:09:42.579Z,2.72
2022-08-31T07:12:11.439Z,3.75
2022-08-31T07:14:39.184Z,2.80
2022-08-31T07:17:08.406Z,2.50
2022-08-31T07:19:35.969Z,2.60
2022-08-31T07:22:09.319Z,3.20
2022-08-31T07:24:43.390Z,2.78
2022-08-31T07:27:16.614Z,2.83
2022-08-31T07:29:54.238Z,3.08
2022-08-31T07:32:22.938Z,2.63
2022-08-31T07:34:58.632Z,4.38
2022-08-31T07:37:51.476Z,3.53
2022-08-31T07:40:42.841Z,4.03
2022-08-31T07:43:13.521Z,2.60
2022-08-31T07:45:42.217Z,2.72
2022-08-31T07:48:12.947Z,2.45
2022-08-31T07:51:06.015Z,2.88
2022-08-31T07:53:56.458Z,3.28
2022-08-31T07:56:43.278Z,3.17
2022-08-31T07:59:15.108Z,3.33
2022-08-31T08:01:47.818Z,2.88
2022-08-31T08:04:25.907Z,2.30
2022-08-31T08:07:12.766Z,3.05
2022-08-31T08:09:55.747Z,1.90
2022-08-31T08:12:43.743Z,2.78
2022-08-31T08:15:20.384Z,3.38
2022-08-31T08:17:48.024Z,3.35
2022-08-31T08:20:25.721Z,2.33
2022-08-31T08:23:28.279Z,2.20
2022-08-31T08:26:21.372Z,2.22
2022-08-31T08:29:06.227Z,2.40
2022-08-31T08:31:40.096Z,2.90
2022-08-31T08:34:10.859Z,2.60
2022-08-31T08:36:40.794Z,2.00
2022-08-31T08:39:10.281Z,1.85
2022-08-31T08:41:44.333Z,2.03
2022-08-31T08:44:17.861Z,1.98
2022-08-31T08:46:59.339Z,2.05
2022-08-31T08:50:03.866Z,1.88
2022-08-31T08:52:41.640Z,1.92
2022-08-31T08:55:17.529Z,1.80
2022-08-31T08:57:49.787Z,1.80
2022-08-31T09:00:25.190Z,2.55
2022-08-31T09:03:07.438Z,1.65
2022-08-31T09:06:16.529Z,1.73
2022-08-31T09:09:11.231Z,1.70
2022-08-31T09:12:22.760Z,2.65
2022-08-31T09:14:53.759Z,2.47
2022-08-31T09:17:59.971Z,1.70
2022-08-31T09:20:28.857Z,2.15
2022-08-31T09:22:58.723Z,2.38
2022-08-31T09:25:58.543Z,1.52
2022-08-31T09:28:51.050Z,2.00
2022-08-31T09:31:46.665Z,1.80
2022-08-31T09:34:38.067Z,1.60
2022-08-31T09:37:24.981Z,1.60
2022-08-31T09:39:54.089Z,1.73
2022-08-31T09:42:33.753Z,1.95
2022-08-31T09:45:09.798Z,1.50
2022-08-31T09:48:01.389Z,2.15
2022-08-31T09:50:45.305Z,3.17
2022-08-31T09:53:37.234Z,1.35
2022-08-31T09:56:12.470Z,1.35
2022-08-31T09:58:50.355Z,1.65
2022-08-31T10:01:45.754Z,1.55
2022-08-31T10:04:26.839Z,1.95
2022-08-31T10:07:08.083Z,1.98
2022-08-31T10:09:50.491Z,1.67
2022-08-31T10:12:44.004Z,1.80
2022-08-31T10:15:30.638Z,1.60
2022-08-31T10:18:29.296Z,1.23
2022-08-31T10:21:12.716Z,1.60
2022-08-31T10:23:54.715Z,1.10
2022-08-31T10:26:46.603Z,1.45
2022-08-31T10:29:27.323Z,1.55
2022-08-31T10:32:00.311Z,1.50
2022-08-31T10:34:54.902Z,1.50
2022-08-31T10:37:34.269Z,1.25
2022-08-31T10:40:41.246Z,1.42
2022-08-31T10:43:21.794Z,1.10
2022-08-31T10:45:54.957Z,1.20
2022-08-31T10:48:26.328Z,1.20
2022-08-31T10:51:19.599Z,1.30
2022-08-31T10:54:07.022Z,1.55
2022-08-31T10:57:05.807Z,1.50
2022-08-31T10:59:33.569Z,2.63
2022-08-31T11:02:19.359Z,2.03
2022-08-31T11:05:11.659Z,1.45
2022-08-31T11:07:57.682Z,1.30
2022-08-31T11:10:50.235Z,1.55
2022-08-31T11:13:49.701Z,1.65
2022-08-31T11:16:43.796Z,1.40
2022-08-31T11:19:31.749Z,1.88
2022-08-31T11:22:07.845Z,1.50
2022-08-31T11:24:38.328Z,1.40
2022-08-31T11:27:19.299Z,1.40
2022-08-31T11:29:59.229Z,1.73
2022-08-31T11:32:51.108Z,1.20
2022-08-31T11:36:14.165Z,1.20
2022-08-31T11:39:03.640Z,1.30
2022-08-31T11:41:31.199Z,1.30
2022-08-31T11:44:04.975Z,1.40
2022-08-31T11:47:05.096Z,1.52
2022-08-31T11:49:38.524Z,2.40
2022-08-31T11:52:29.913Z,1.52
2022-08-31T11:55:25.772Z,1.08
2022-08-31T11:58:10.556Z,1.40
2022-08-31T12:00:42.811Z,1.10
2022-08-31T12:03:32.576Z,1.20
2022-08-31T12:06:06.794Z,1.30
2022-08-31T12:08:54.943Z,1.30
2022-08-31T12:11:51.972Z,0.77
2022-08-31T12:14:27.225Z,1.10
2022-08-31T12:17:28.656Z,1.17
2022-08-31T12:21:00.852Z,2.58
2022-08-31T12:23:45.931Z,1.08
2022-08-31T12:26:25.978Z,1.52
2022-08-31T12:29:12.377Z,1.20
2022-08-31T12:32:00.217Z,0.98
2022-08-31T12:34:29.674Z,1.08
2022-08-31T12:36:59.810Z,0.90
2022-08-31T12:39:28.982Z,1.00
2022-08-31T12:42:04.987Z,1.15
2022-08-31T12:44:51.446Z,1.13
2022-08-31T12:47:42.310Z,3.80
2022-08-31T12:50:25.080Z,1.33
2022-08-31T12:53:00.445Z,1.17
2022-08-31T12:55:39.982Z,1.40
2022-08-31T12:58:38.139Z,0.73
2022-08-31T13:01:12.901Z,1.10
2022-08-31T13:03:54.364Z,1.30
2022-08-31T13:06:34.927Z,1.38
2022-08-31T13:09:06.162Z,2.00
2022-08-31T13:11:42.942Z,1.15
2022-08-31T13:16:47.638Z,0.95
2022-08-31T13:19:31.213Z,0.90
2022-08-31T13:22:05.426Z,2.20
2022-08-31T13:24:36.876Z,1.50
2022-08-31T13:27:10.816Z,0.88
2022-08-31T13:29:46.480Z,0.60
2022-08-31T13:32:34.008Z,1.58
2022-08-31T13:35:08.434Z,1.20
2022-08-31T13:37:46.301Z,0.80
2022-08-31T13:40:18.924Z,0.90
2022-08-31T13:42:56.584Z,0.70
2022-08-31T13:45:34.174Z,1.00
2022-08-31T13:48:18.632Z,1.13
2022-08-31T13:50:54.646Z,1.27
2022-08-31T13:54:06.611Z,1.00
2022-08-31T13:56:59.158Z,1.15
2022-08-31T13:59:31.901Z,1.85
2022-08-31T14:02:22.674Z,1.65
2022-08-31T14:04:56.219Z,1.02
2022-08-31T14:07:54.723Z,1.15
2022-08-31T14:10:35.393Z,1.27
2022-08-31T14:13:15.857Z,1.00
2022-08-31T14:15:52.530Z,1.30
2022-08-31T14:18:32.171Z,0.80
2022-08-31T14:21:23.024Z,2.42
2022-08-31T14:23:54.734Z,0.93
2022-08-31T14:26:29.360Z,0.57
2022-08-31T14:29:00.607Z,0.90
2022-08-31T14:31:35.025Z,0.88
2022-08-31T14:34:23.476Z,0.50
2022-08-31T14:36:56.047Z,0.95
2022-08-31T14:39:31.394Z,0.57
2022-08-31T14:42:07.422Z,0.80
2022-08-31T14:44:41.362Z,0.55
2022-08-31T14:47:12.609Z,1.35
2022-08-31T14:49:45.697Z,1.20
2022-08-31T14:52:14.792Z,2.00
2022-08-31T14:54:43.225Z,1.00
2022-08-31T14:57:26.044Z,1.75
2022-08-31T14:59:59.900Z,1.08
2022-08-31T15:02:33.660Z,1.20
2022-08-31T15:05:04.949Z,2.33
2022-08-31T15:07:37.605Z,1.52
2022-08-31T15:10:26.020Z,1.35
2022-08-31T15:12:54.314Z,1.38
2022-08-31T15:15:22.286Z,1.80
2022-08-31T15:17:51.861Z,1.02
2022-08-31T15:20:22.873Z,0.90
2022-08-31T15:22:51.251Z,0.60
2022-08-31T15:25:20.856Z,0.70
2022-08-31T15:27:51.794Z,1.05
2022-08-31T15:30:20.219Z,0.90
2022-08-31T15:32:48.921Z,0.73
2022-08-31T15:35:24.579Z,1.05
2022-08-31T15:38:01.387Z,1.60
2022-08-31T15:40:38.626Z,1.45
2022-08-31T15:43:09.663Z,1.25
2022-08-31T15:45:37.606Z,0.90
2022-08-31T15:48:24.151Z,0.80
2022-08-31T15:50:59.078Z,1.85
2022-08-31T15:53:30.625Z,1.40
2022-08-31T15:56:06.545Z,1.67
2022-08-31T15:58:35.686Z,0.83
2022-08-31T16:01:07.866Z,0.60
2022-08-31T16:03:35.814Z,1.75
2022-08-31T16:06:05.559Z,1.50
2022-08-31T16:08:33.221Z,1.45
2022-08-31T16:11:05.594Z,2.70
2022-08-31T16:13:33.882Z,2.28
2022-08-31T16:16:02.105Z,1.00
2022-08-31T16:18:31.374Z,1.00
2022-08-31T16:21:07.479Z,0.75
2022-08-31T16:23:35.896Z,0.80
2022-08-31T16:26:05.464Z,0.90
2022-08-31T16:28:35.010Z,0.68
2022-08-31T16:31:12.676Z,0.85
2022-08-31T16:33:42.219Z,0.68
2022-08-31T16:36:20.885Z,0.82
2022-08-31T16:38:49.728Z,1.15
2022-08-31T16:41:18.573Z,0.90
2022-08-31T16:44:03.417Z,0.80
2022-08-31T16:46:40.863Z,0.82
2022-08-31T16:49:29.726Z,0.73
2022-08-31T16:51:58.536Z,0.80
2022-08-31T16:54:28.839Z,0.85
2022-08-31T16:56:57.951Z,0.68
2022-08-31T16:59:27.950Z,0.65
2022-08-31T17:01:56.866Z,0.65
2022-08-31T17:07:16.792Z,0.90
2022-08-31T17:09:45.426Z,0.50
2022-08-31T17:12:17.292Z,0.60
2022-08-31T17:14:52.825Z,0.77
2022-08-31T17:17:26.006Z,0.88
2022-08-31T17:19:58.296Z,0.80
2022-08-31T17:22:32.684Z,1.92
2022-08-31T17:25:03.858Z,1.40
2022-08-31T17:27:33.737Z,0.93
2022-08-31T17:30:05.993Z,0.90
2022-08-31T17:32:41.812Z,1.20
2022-08-31T17:35:18.638Z,0.90
2022-08-31T17:37:51.060Z,0.98
2022-08-31T17:40:19.253Z,0.75
2022-08-31T17:42:48.593Z,0.70
2022-08-31T17:45:17.627Z,0.70
2022-08-31T17:47:51.405Z,1.40
2022-08-31T17:50:21.352Z,0.68
2022-08-31T17:52:49.454Z,0.90
2022-08-31T17:55:17.790Z,1.17
2022-08-31T17:57:48.840Z,0.90
2022-08-31T18:00:16.953Z,0.63
2022-08-31T18:02:46.068Z,0.65
2022-08-31T18:05:16.475Z,0.77
2022-08-31T18:07:44.362Z,0.65
2022-08-31T18:10:12.760Z,0.80
2022-08-31T18:12:42.269Z,1.10
2022-08-31T18:15:14.625Z,1.13
2022-08-31T18:17:43.203Z,0.93
2022-08-31T18:20:30.533Z,0.80
2022-08-31T18:22:58.218Z,0.98
2022-08-31T18:25:27.100Z,0.63
2022-08-31T18:27:56.329Z,0.70
2022-08-31T18:30:24.014Z,0.98
2022-08-31T18:32:52.752Z,0.60
2022-08-31T18:35:20.671Z,0.50
2022-08-31T18:37:56.523Z,0.90
2022-08-31T18:40:44.777Z,0.65
2022-08-31T18:43:31.433Z,1.17
2022-08-31T18:45:59.350Z,0.70
2022-08-31T18:48:28.699Z,1.33
2022-08-31T18:50:59.133Z,1.20
2022-08-31T18:53:30.388Z,1.27
2022-08-31T18:56:08.616Z,0.70
2022-08-31T18:58:37.274Z,0.80
2022-08-31T19:01:07.569Z,0.82
2022-08-31T19:03:37.915Z,0.65
2022-08-31T19:06:09.224Z,0.82
2022-08-31T19:08:37.193Z,0.70
2022-08-31T19:11:08.360Z,0.60
2022-08-31T19:13:36.207Z,0.90
2022-08-31T19:16:14.778Z,0.57
2022-08-31T19:18:44.737Z,0.70
2022-08-31T19:21:15.524Z,1.73
2022-08-31T19:23:44.101Z,3.42
2022-08-31T19:26:18.719Z,1.33
2022-08-31T19:28:48.923Z,0.65
2022-08-31T19:31:18.916Z,1.17
2022-08-31T19:33:49.366Z,0.55
2022-08-31T19:36:17.327Z,1.10
2022-08-31T19:38:49.995Z,0.60
2022-08-31T19:41:20.542Z,1.00
2022-08-31T19:43:56.071Z,0.90
2022-08-31T19:46:33.047Z,1.33
2022-08-31T19:49:01.281Z,1.35
2022-08-31T19:51:31.484Z,2.00
2022-08-31T19:54:01.036Z,1.30
2022-08-31T19:56:30.692Z,1.15
2022-08-31T19:59:01.429Z,1.30
2022-08-31T20:01:34.091Z,1.00
2022-08-31T20:04:06.729Z,1.13
2022-08-31T20:06:34.715Z,0.70
2022-08-31T20:09:03.042Z,0.80
2022-08-31T20:11:34.633Z,0.82
2022-08-31T20:14:06.134Z,0.50
2022-08-31T20:16:42.053Z,0.70
2022-08-31T20:19:14.670Z,1.08
2022-08-31T20:21:43.882Z,1.05
2022-08-31T20:24:14.307Z,1.00
2022-08-31T20:26:51.521Z,0.90
2022-08-31T20:29:20.587Z,1.00
2022-08-31T20:31:55.504Z,1.10
2022-08-31T20:34:28.183Z,0.80
2022-08-31T20:37:00.938Z,1.08
2022-08-31T20:39:31.330Z,1.00
2022-08-31T20:42:00.699Z,0.70
2022-08-31T20:44:33.910Z,1.00
2022-08-31T20:47:29.008Z,0.60
2022-08-31T20:50:00.356Z,1.35
2022-08-31T20:52:32.214Z,1.17
2022-08-31T20:55:02.852Z,1.10
2022-08-31T20:57:34.617Z,1.13
2022-08-31T21:00:05.771Z,0.40
2022-08-31T21:02:40.229Z,0.68
2022-08-31T21:07:59.871Z,0.50
2022-08-31T21:10:37.919Z,1.80
2022-08-31T21:13:10.115Z,1.45
2022-08-31T21:15:46.613Z,1.67
2022-08-31T21:18:19.298Z,1.45
2022-08-31T21:20:47.835Z,1.50
2022-08-31T21:23:16.309Z,1.00
2022-08-31T21:25:46.096Z,1.60
2022-08-31T21:28:18.317Z,1.00
2022-08-31T21:30:49.832Z,0.90
2022-08-31T21:33:18.737Z,1.10
2022-08-31T21:35:47.839Z,0.70
2022-08-31T21:38:15.910Z,1.10
2022-08-31T21:40:50.414Z,1.00
2022-08-31T21:43:18.963Z,2.00
2022-08-31T21:45:47.055Z,1.35
2022-08-31T21:48:14.941Z,1.05
2022-08-31T21:50:43.160Z,1.50
2022-08-31T21:53:11.918Z,0.65
2022-08-31T21:55:40.226Z,0.63
2022-08-31T21:58:08.509Z,0.75
2022-08-31T22:00:41.985Z,1.58
2022-08-31T22:03:11.549Z,0.90
2022-08-31T22:05:44.166Z,1.02
2022-08-31T22:08:12.462Z,0.68
2022-08-31T22:10:44.440Z,3.83
2022-08-31T22:13:13.503Z,1.80
2022-08-31T22:15:47.319Z,2.53
2022-08-31T22:18:59.044Z,2.50
2022-08-31T22:21:06.887Z,1.63
2022-08-31T22:23:35.807Z,1.10
2022-08-31T22:26:04.188Z,0.95
2022-08-31T22:28:34.818Z,1.30
2022-08-31T22:31:03.879Z,0.60
2022-08-31T22:33:32.703Z,0.80
2022-08-31T22:36:01.595Z,0.80
2022-08-31T22:38:30.737Z,0.50
2022-08-31T22:41:04.086Z,0.60
2022-08-31T22:43:32.155Z,0.80
2022-08-31T22:46:00.421Z,1.33
2022-08-31T22:48:28.605Z,3.45
2022-08-31T22:50:56.678Z,1.30
2022-08-31T22:53:24.956Z,0.60
2022-08-31T22:55:53.542Z,1.10
2022-08-31T22:58:21.566Z,1.08
2022-08-31T23:00:49.639Z,0.50
2022-08-31T23:03:17.936Z,0.60
2022-08-31T23:05:45.721Z,0.50
2022-08-31T23:08:15.083Z,0.40
2022-08-31T23:10:44.324Z,0.50
2022-08-31T23:13:12.251Z,0.47
2022-08-31T23:15:40.422Z,0.70
2022-08-31T23:18:10.137Z,0.65
2022-08-31T23:20:41.297Z,0.93
2022-08-31T23:23:10.275Z,1.15
2022-08-31T23:25:40.499Z,1.10
2022-08-31T23:28:08.827Z,0.90
2022-08-31T23:30:38.331Z,1.00
2022-08-31T23:33:07.278Z,0.80
2022-08-31T23:35:35.246Z,0.93
2022-08-31T23:38:03.419Z,0.90
2022-08-31T23:40:34.409Z,0.82
2022-08-31T23:43:02.508Z,0.68
2022-08-31T23:45:30.300Z,1.00
2022-08-31T23:47:58.369Z,1.10
2022-08-31T23:50:26.338Z,1.05
2022-08-31T23:52:54.223Z,0.95
2022-08-31T23:55:31.210Z,0.52
2022-08-31T23:58:02.496Z,0.88
